Klossner, Minnesota
Current Conditions -  °F | °C
As of 1:14 AM on Friday 28 Nov 2014 (Local Time) from KULM Reporting Station
Broken Clouds Broken Clouds  
Wind Chill: -7°   Ceiling: 9000
Heat Index:   Visibility: 10mi
Dew Point:   Wind: 13mph
Humidity: 79%   Direction: 120°ESE
Pressure: 30.1"   Gusts: NA
Location:  44.2563°N, 94.471°W
Report Text: KULM 280714Z AUTO 12011KT 10SM BKN090 M13/M16 A3010 RMK AO2
Loading
Personal Weather Stations






























Interactive Weather Map New forecast layout! Learn more

10-Day Weather Forecast

Advertisements
Track Severe Weather on mobile